Dexter, New York
Current Conditions -  °F | °C
As of 12:56 AM on Monday 20 Oct 2014 (Local Time) from KART Reporting Station
Clear Clear  
Wind Chill: 31°   Ceiling: Unl
Heat Index: 31°   Visibility: 10mi
Dew Point: 26°   Wind: 3mph
Humidity: 82%   Direction: 80°E
Pressure: 30.01"   Gusts: NA
Location:  44.01°N, 76.05°W
Report Text: KART 200456Z AUTO 08003KT 10SM CLR M01/M03 A3001 RMK AO2 SLP164 T10061033 400781006
Loading
Personal Weather Stations






























Interactive Weather Map
Tropical Storm Tracking
New forecast layout! Learn more

10-Day Weather Forecast

Advertisements
Track Severe Weather on mobile